Time;durP1;ratioP1;P1;durP2;ratioP2;P2;SDS_P1;SDS_P2;PMS_P1;PMS_P2;Temp;Humidity;BMP_temperature;BMP_pressure;BME280_temperature;BME280_humidity;BME280_pressure;Samples;Min_cycle;Max_cycle;Signal;HPM_P1;HPM_P2
2023/01/26 00:01:18;;;;;;;38.22;19.45;;;0.70;99.90;;;-0.33;100.00;97766.66;5028475;28;20035;-37
2023/01/26 00:03:45;;;;;;;42.20;21.38;;;0.70;99.90;;;-0.30;100.00;97772.75;5028392;28;20507;-38
2023/01/26 00:06:14;;;;;;;41.25;20.73;;;0.70;99.90;;;-0.27;100.00;97774.47;5032217;28;20057;-38
2023/01/26 00:08:46;;;;;;;39.50;20.20;;;0.70;99.90;;;-0.27;100.00;97770.19;5030662;28;20044;-38
2023/01/26 00:11:14;;;;;;;;;;;0.70;99.90;;;-0.27;100.00;97765.00;5031953;28;20029;-38
2023/01/26 00:13:41;;;;;;;39.22;19.45;;;0.80;99.90;;;-0.39;100.00;97749.31;5027782;28;19950;-39
2023/01/26 00:16:14;;;;;;;51.03;22.15;;;0.70;99.90;;;-0.36;100.00;97749.31;5029478;28;20040;-38
2023/01/26 00:18:41;;;;;;;42.05;21.58;;;0.70;99.90;;;-0.40;100.00;97743.22;5015227;28;20411;-38
2023/01/26 00:21:11;;;;;;;40.38;19.05;;;0.70;99.90;;;-0.36;100.00;97741.56;5032434;28;20035;-38
2023/01/26 00:23:37;;;;;;;44.83;19.65;;;0.70;99.90;;;-0.32;100.00;97729.50;5028100;28;20477;-38
2023/01/26 00:26:06;;;;;;;38.40;19.38;;;0.70;99.90;;;-0.31;100.00;97721.75;5030562;28;20036;-38
2023/01/26 00:28:32;;;;;;;42.15;20.45;;;0.70;99.90;;;-0.21;100.00;97725.31;5028875;28;20026;-38
2023/01/26 00:31:15;;;;;;;40.33;19.67;;;0.80;99.90;;;-0.30;100.00;97727.81;5022084;28;20040;-37
2023/01/26 00:33:40;;;;;;;43.95;20.40;;;0.70;99.90;;;-0.35;100.00;97721.72;5027376;28;20017;-38
2023/01/26 00:36:07;;;;;;;38.58;18.38;;;0.80;99.90;;;-0.37;100.00;97711.31;5031755;28;20227;-38
2023/01/26 00:38:33;;;;;;;38.90;18.77;;;0.70;99.90;;;-0.32;100.00;97714.84;5033725;28;20028;-37
2023/01/26 00:40:59;;;;;;;41.42;20.30;;;0.70;99.90;;;-0.29;100.00;97714.84;5025440;28;20033;-38
2023/01/26 00:43:24;;;;;;;38.63;19.40;;;0.70;99.90;;;-0.51;100.00;97684.38;5020750;28;20773;-38
2023/01/26 00:45:50;;;;;;;42.40;18.85;;;0.70;99.90;;;-0.26;100.00;97709.72;5028985;28;20048;-39
2023/01/26 00:48:16;;;;;;;41.80;19.95;;;0.70;99.90;;;-0.35;100.00;97707.03;5034341;28;20220;-37
2023/01/26 00:50:42;;;;;;;35.65;17.77;;;0.70;99.90;;;-0.39;100.00;97708.72;5038918;28;20061;-38
2023/01/26 00:53:08;;;;;;;36.70;19.00;;;0.70;99.90;;;-0.40;100.00;97703.50;5038618;28;20099;-38
2023/01/26 00:55:34;;;;;;;37.88;18.98;;;0.70;99.90;;;-0.41;100.00;97701.78;5035691;28;20037;-38
2023/01/26 00:58:03;;;;;;;43.30;19.20;;;0.60;99.90;;;-0.35;100.00;97704.44;5031421;28;20056;-37
2023/01/26 01:00:31;;;;;;;42.00;20.48;;;0.60;99.90;;;-0.35;100.00;97696.66;5011471;28;20036;-38
2023/01/26 01:02:57;;;;;;;42.05;20.85;;;0.70;99.90;;;-0.38;100.00;97691.44;5022135;28;20074;-38
2023/01/26 01:05:24;;;;;;;38.60;18.80;;;0.70;99.90;;;-0.38;100.00;97688.84;5008174;28;20040;-37
2023/01/26 01:07:50;;;;;;;46.90;21.75;;;0.60;99.90;;;-0.48;100.00;97687.88;5025972;28;20024;-38
2023/01/26 01:10:16;;;;;;;47.47;21.55;;;0.60;99.90;;;-0.51;100.00;97690.44;5026319;28;20030;-38
2023/01/26 01:12:42;;;;;;;47.00;21.20;;;0.60;99.90;;;-0.46;100.00;97693.94;5023999;28;20087;-38
2023/01/26 01:15:09;;;;;;;41.47;20.70;;;0.50;99.90;;;-0.44;100.00;97697.41;5020881;28;20673;-38
2023/01/26 01:17:36;;;;;;;42.65;20.85;;;0.60;99.90;;;-0.43;100.00;97696.56;5026178;28;20028;-38
2023/01/26 01:20:04;;;;;;;43.08;21.02;;;0.60;99.90;;;-0.45;100.00;97699.97;5032634;28;20029;-38
2023/01/26 01:22:31;;;;;;;41.63;20.33;;;0.60;99.90;;;-0.47;100.00;97693.91;5030589;28;20044;-38
2023/01/26 01:24:57;;;;;;;42.22;19.75;;;0.60;99.90;;;-0.45;100.00;97685.34;5034749;28;20421;-38
2023/01/26 01:27:22;;;;;;;43.33;21.05;;;0.60;99.90;;;-0.47;100.00;97660.22;5029837;28;20037;-38
2023/01/26 01:29:50;;;;;;;43.55;21.33;;;0.60;99.90;;;-0.44;100.00;97689.63;5028387;28;20060;-38
2023/01/26 01:32:16;;;;;;;51.63;22.30;;;0.60;99.90;;;-0.35;100.00;97690.59;5021743;28;20045;-38
2023/01/26 01:34:41;;;;;;;49.58;21.10;;;0.60;99.90;;;-0.44;100.00;97686.19;5027853;28;20071;-38
2023/01/26 01:37:07;;;;;;;42.25;19.65;;;0.60;99.90;;;-0.50;100.00;97676.63;5032238;28;20029;-38
2023/01/26 01:39:33;;;;;;;49.10;21.13;;;0.60;99.90;;;-0.58;100.00;97678.25;5035876;28;20114;-38
2023/01/26 01:41:58;;;;;;;42.78;19.92;;;0.50;99.90;;;-0.56;100.00;97680.88;5031083;28;20031;-38
2023/01/26 01:44:25;;;;;;;37.90;18.52;;;0.50;99.90;;;-0.53;100.00;97683.50;5030859;28;20024;-38
2023/01/26 01:46:57;;;;;;;46.38;19.83;;;0.50;99.90;;;-0.52;100.00;97686.13;5026471;28;20123;-38
2023/01/26 01:49:32;;;;;;;39.55;18.23;;;0.50;99.90;;;-0.52;100.00;97678.34;5015110;28;20496;-38
2023/01/26 01:52:10;;;;;;;41.53;19.75;;;0.50;99.90;;;-0.47;100.00;97666.28;5012426;28;20032;-38
2023/01/26 01:54:49;;;;;;;48.80;20.23;;;0.50;99.90;;;-0.54;100.00;97676.56;5031599;28;20029;-38
2023/01/26 01:57:28;;;;;;;43.45;19.63;;;0.50;99.90;;;-0.55;100.00;97677.44;5024315;28;20555;-38
2023/01/26 02:00:07;;;;;;;33.70;16.65;;;0.50;99.90;;;-0.52;100.00;97672.25;5029636;28;20134;-38
2023/01/26 02:02:34;;;;;;;36.47;17.27;;;0.50;99.90;;;-0.57;100.00;97672.22;5027773;28;20039;-38
2023/01/26 02:05:11;;;;;;;34.70;17.67;;;0.50;99.90;;;-0.51;100.00;97671.44;5012318;28;20025;-38
2023/01/26 02:07:38;;;;;;;38.80;18.50;;;0.50;99.90;;;-0.49;100.00;97669.72;5034829;28;20028;-38
2023/01/26 02:10:20;;;;;;;40.45;18.77;;;0.50;99.90;;;-0.54;100.00;97661.03;5028047;28;20078;-38
2023/01/26 02:12:48;;;;;;;42.22;19.58;;;0.50;99.90;;;-0.59;100.00;97651.47;5024752;28;20037;-38
2023/01/26 02:15:14;;;;;;;44.28;19.42;;;0.50;99.90;;;-0.68;100.00;97646.19;5026359;28;20029;-38
2023/01/26 02:17:40;;;;;;;45.95;18.83;;;0.40;99.90;;;-0.67;100.00;97653.09;5024980;22;20459;-53
2023/01/26 02:20:45;;;;;;;37.00;18.35;;;0.40;99.90;;;-0.58;100.00;97663.56;4995341;28;20498;-51
2023/01/26 02:23:50;;;;;;;37.20;17.85;;;0.40;99.90;;;-0.54;100.00;97651.53;4993749;28;20103;-52
2023/01/26 02:26:21;;;;;;;36.95;16.75;;;0.50;99.90;;;-0.65;100.00;97651.41;4983596;28;20352;-53
2023/01/26 02:28:48;;;;;;;35.58;16.42;;;0.40;99.90;;;-0.62;100.00;97648.00;4971093;28;20541;-52
2023/01/26 02:31:15;;;;;;;39.45;18.88;;;0.40;99.90;;;-0.70;100.00;97647.91;4988615;28;20462;-50
2023/01/26 02:33:41;;;;;;;39.20;19.02;;;0.40;99.90;;;-0.66;100.00;97644.50;4985769;28;20032;-51
2023/01/26 02:36:20;;;;;;;44.75;19.08;;;0.40;99.90;;;-0.69;100.00;97652.22;4986597;28;20431;-53
2023/01/26 02:38:52;;;;;;;42.42;18.33;;;0.40;99.90;;;-0.68;100.00;97645.31;4983780;28;22583;-52
2023/01/26 02:44:06;;;;;;;39.75;17.65;;;0.40;99.90;;;-0.65;100.00;97637.59;4976333;28;20056;-53
2023/01/26 02:46:32;;;;;;;38.45;17.33;;;0.40;99.90;;;-0.73;100.00;97642.69;4986407;28;20041;-53
2023/01/26 02:51:42;;;;;;;37.50;18.60;;;0.30;99.90;;;-0.84;100.00;97633.94;4989486;28;20100;-53
2023/01/26 02:54:07;;;;;;;40.58;17.70;;;0.30;99.90;;;-0.85;100.00;97627.00;4990647;28;20457;-52
2023/01/26 02:56:38;;;;;;;37.00;17.52;;;0.30;99.90;;;-0.81;100.00;97629.66;4993588;28;20026;-52
2023/01/26 02:59:05;;;;;;;45.00;18.45;;;0.30;99.90;;;-0.85;100.00;97620.09;4986598;28;20034;-52
2023/01/26 03:01:30;;;;;;;41.08;18.48;;;0.30;99.90;;;-0.71;100.00;97622.00;4991296;28;20087;-52
2023/01/26 03:03:56;;;;;;;37.47;16.95;;;0.30;99.90;;;-0.80;100.00;97609.81;4991466;28;20445;-52
2023/01/26 03:06:22;;;;;;;38.47;17.30;;;0.30;99.90;;;-0.69;100.00;97623.72;4986837;28;20210;-53
2023/01/26 03:08:47;;;;;;;40.40;17.23;;;0.30;99.90;;;-0.70;100.00;97623.72;4986324;28;20538;-51
2023/01/26 03:11:13;;;;;;;33.65;17.00;;;0.30;99.90;;;-0.67;100.00;97622.03;4985647;28;20042;-51
2023/01/26 03:13:39;;;;;;;40.05;17.65;;;0.40;99.90;;;-0.71;100.00;97615.09;4990840;28;20468;-51
2023/01/26 03:16:09;;;;;;;43.10;18.90;;;0.30;99.90;;;-0.80;100.00;97609.81;4984328;28;20454;-52
2023/01/26 03:29:33;;;;;;;39.20;17.23;;;0.30;99.90;;;-0.75;100.00;97595.19;4991875;28;20374;-52
2023/01/26 03:31:59;;;;;;;36.83;16.02;;;0.30;99.90;;;-0.73;100.00;97596.06;4991184;28;20043;-52
2023/01/26 03:34:26;;;;;;;36.97;17.13;;;0.30;99.90;;;-0.77;100.00;97596.91;4964447;28;20065;-49
2023/01/26 03:36:51;;;;;;;33.42;16.05;;;0.30;99.90;;;-0.84;100.00;97582.16;4990864;28;20030;-51
2023/01/26 03:56:23;;;;;;;34.55;15.15;;;0.20;99.90;;;-0.96;100.00;97564.75;4986703;28;20566;-50
2023/01/26 03:58:57;;;;;;;32.55;14.93;;;0.20;99.90;;;-0.80;100.00;97584.75;4992120;28;20038;-53
2023/01/26 04:01:26;;;;;;;37.38;16.45;;;0.30;99.90;;;-0.72;100.00;97584.84;4992996;28;20133;-48
2023/01/26 04:09:28;;;;;;;36.78;16.05;;;0.30;99.90;;;-0.75;100.00;97594.28;4993520;28;20053;-51
2023/01/26 04:11:54;;;;;;;31.52;14.60;;;0.30;99.90;;;-0.80;100.00;97595.13;4991941;28;20030;-51
2023/01/26 04:22:42;;;;;;;31.92;14.75;;;0.20;99.90;;;-0.87;100.00;97587.28;4992306;28;20234;-51
2023/01/26 04:25:10;;;;;;;31.35;14.68;;;0.20;99.90;;;-0.91;100.00;97583.78;4984777;28;20038;-48
2023/01/26 04:27:36;;;;;;;33.58;15.15;;;0.20;99.90;;;-0.89;100.00;97596.75;4988273;28;20088;-50
2023/01/26 04:30:03;;;;;;;34.72;14.68;;;0.20;99.90;;;-0.88;100.00;97595.88;4990690;28;20100;-51
2023/01/26 04:32:29;;;;;;;36.53;15.38;;;0.20;99.90;;;-0.90;100.00;97589.81;4994921;28;20063;-48
2023/01/26 04:34:55;;;;;;;32.83;15.02;;;0.20;99.90;;;-0.91;100.00;97596.72;4986995;28;20022;-51
2023/01/26 04:37:21;;;;;;;33.00;15.05;;;0.10;99.90;;;-0.90;100.00;97588.09;4993871;28;20049;-48
2023/01/26 04:39:47;;;;;;;32.70;15.05;;;0.20;99.90;;;-0.93;100.00;97582.91;4992044;28;20039;-51
2023/01/26 04:42:13;;;;;;;33.60;15.07;;;0.10;99.90;;;-0.91;100.00;97582.94;4993033;28;20040;-48
2023/01/26 04:44:38;;;;;;;30.33;14.40;;;0.20;99.90;;;-0.94;100.00;97577.69;4992779;28;20030;-52
2023/01/26 04:47:04;;;;;;;31.80;13.88;;;0.20;99.90;;;-0.92;100.00;97570.81;4993515;28;20717;-50
2023/01/26 04:49:30;;;;;;;30.73;13.88;;;0.10;99.90;;;-0.81;100.00;97569.22;4995136;28;20089;-50
2023/01/26 04:51:55;;;;;;;33.55;14.52;;;0.20;99.90;;;-0.89;100.00;97566.53;4990661;28;20041;-49
2023/01/26 04:54:21;;;;;;;30.67;15.05;;;0.20;99.90;;;-0.91;100.00;97569.97;4988346;28;20112;-50
2023/01/26 04:56:47;;;;;;;31.55;15.68;;;0.20;99.90;;;-1.02;100.00;97567.28;4993971;28;20093;-52
2023/01/26 04:59:13;;;;;;;33.30;15.07;;;0.10;99.90;;;-1.02;100.00;97562.94;4993294;28;20037;-50
2023/01/26 05:01:39;;;;;;;35.08;16.30;;;0.10;99.90;;;-1.06;100.00;97563.78;4986163;28;20501;-51
2023/01/26 05:04:06;;;;;;;31.00;14.65;;;0.10;99.90;;;-1.03;100.00;97560.34;4987451;28;20044;-49
2023/01/26 05:06:32;;;;;;;36.40;15.98;;;0.00;99.90;;;-1.05;100.00;97564.63;4988974;28;20034;-50
2023/01/26 05:08:58;;;;;;;36.70;15.73;;;0.00;99.90;;;-0.94;100.00;97564.75;4992883;28;20030;-50
2023/01/26 05:11:24;;;;;;;30.17;14.80;;;0.00;99.90;;;-0.93;100.00;97561.31;4990921;28;20087;-51
2023/01/26 05:13:50;;;;;;;28.23;13.77;;;0.10;99.90;;;-0.96;100.00;97567.31;4984022;28;20376;-51
2023/01/26 05:16:16;;;;;;;30.05;14.57;;;0.10;99.90;;;-0.98;100.00;97569.03;4984913;28;20041;-50
2023/01/26 05:18:42;;;;;;;33.33;14.13;;;0.10;99.90;;;-0.99;100.00;97569.88;4984641;28;20041;-50
2023/01/26 05:21:09;;;;;;;35.85;16.27;;;0.10;99.90;;;-1.07;100.00;97564.63;4992558;28;20034;-50
2023/01/26 05:23:36;;;;;;;33.70;15.38;;;0.10;99.90;;;-1.11;100.00;97567.13;4990668;28;20049;-49
2023/01/26 05:26:02;;;;;;;32.63;15.63;;;0.00;99.90;;;-0.93;100.00;97569.06;4993413;28;20078;-50
2023/01/26 05:28:28;;;;;;;30.35;14.32;;;0.00;99.90;;;-1.11;100.00;97573.22;4989500;28;20034;-51
2023/01/26 05:30:54;;;;;;;35.75;14.98;;;0.00;99.90;;;-1.14;100.00;97570.56;4993054;28;20030;-52
2023/01/26 05:33:20;;;;;;;32.45;15.00;;;-0.10;99.90;;;-1.19;100.00;97574.81;4982242;28;20521;-48
2023/01/26 05:35:48;;;;;;;31.95;14.45;;;0.00;99.90;;;-1.23;100.00;97573.91;4989326;28;20057;-49
2023/01/26 05:38:14;;;;;;;38.03;16.02;;;-0.10;99.90;;;-1.24;100.00;97573.88;4990328;28;20040;-51
2023/01/26 05:40:40;;;;;;;30.35;14.45;;;-0.10;99.90;;;-1.23;100.00;97573.06;4996855;28;20045;-49
2023/01/26 05:43:07;;;;;;;27.48;13.95;;;-0.10;99.90;;;-1.14;100.00;97570.56;4989264;28;20389;-51
2023/01/26 05:45:33;;;;;;;28.77;13.93;;;-0.10;99.90;;;-1.20;100.00;97571.38;4993366;28;20037;-51
2023/01/26 05:47:59;;;;;;;29.60;13.50;;;-0.10;99.90;;;-1.18;100.00;97581.75;4993420;28;20038;-50
2023/01/26 05:50:25;;;;;;;30.60;13.40;;;-0.10;99.90;;;-1.24;100.00;97581.66;4995350;28;20087;-51
2023/01/26 05:52:51;;;;;;;28.00;13.55;;;-0.10;99.90;;;-1.28;100.00;97579.88;4987372;28;20469;-50
2023/01/26 05:55:17;;;;;;;33.67;16.10;;;-0.10;99.90;;;-1.13;100.00;97579.19;4990809;28;20037;-47
2023/01/26 05:57:42;;;;;;;27.27;13.32;;;-0.10;99.90;;;-1.26;100.00;97578.19;4984876;28;20030;-49
2023/01/26 06:00:10;;;;;;;28.77;13.07;;;-0.20;99.90;;;-1.32;100.00;97580.69;4989303;28;20250;-47
2023/01/26 06:02:36;;;;;;;27.38;13.23;;;-0.20;99.90;;;-1.38;100.00;97578.91;4992857;28;20042;-52
2023/01/26 06:05:02;;;;;;;30.90;13.77;;;-0.30;99.90;;;-1.35;100.00;97578.94;4992478;28;20029;-49
2023/01/26 06:07:28;;;;;;;31.25;13.98;;;-0.20;99.90;;;-1.37;100.00;97573.72;4982185;28;20464;-53
2023/01/26 06:09:53;;;;;;;34.63;15.18;;;-0.20;99.90;;;-1.30;100.00;97584.19;4991536;28;20042;-51
2023/01/26 06:12:20;;;;;;;32.53;14.82;;;-0.20;99.90;;;-1.35;100.00;97576.34;4992273;28;20276;-48
2023/01/26 06:14:46;;;;;;;34.03;15.30;;;-0.20;99.90;;;-1.37;100.00;97581.50;4989503;28;20026;-50
2023/01/26 06:17:14;;;;;;;31.00;14.75;;;-0.20;99.90;;;-1.32;100.00;97578.13;4965384;28;20680;-50
2023/01/26 06:19:40;;;;;;;34.72;15.32;;;-0.20;99.90;;;-1.35;100.00;97589.28;4992297;28;20326;-50
2023/01/26 06:22:11;;;;;;;36.05;15.35;;;-0.20;99.90;;;-1.33;100.00;97579.81;4993378;28;20036;-51
2023/01/26 06:24:37;;;;;;;28.45;15.25;;;-0.20;99.90;;;-1.33;100.00;97582.41;4966452;28;20496;-51
2023/01/26 06:27:05;;;;;;;36.33;15.70;;;-0.20;99.90;;;-1.35;100.00;97585.00;4982246;28;20041;-51
2023/01/26 06:29:32;;;;;;;29.55;14.75;;;-0.20;99.90;;;-1.39;100.00;97590.97;4990910;28;20042;-49
2023/01/26 06:31:59;;;;;;;32.10;15.55;;;-0.30;99.90;;;-1.39;100.00;97585.78;4988879;28;20033;-48
2023/01/26 06:34:25;;;;;;;31.25;14.75;;;-0.30;99.90;;;-1.39;100.00;97587.50;4993904;28;20034;-49
2023/01/26 06:36:51;;;;;;;33.40;15.80;;;-0.30;99.90;;;-1.39;100.00;97588.38;4991786;28;20529;-49
2023/01/26 06:39:17;;;;;;;30.38;15.57;;;-0.30;99.90;;;-1.33;100.00;97591.88;4995021;28;20119;-47
2023/01/26 06:41:43;;;;;;;38.45;14.85;;;-0.30;99.90;;;-1.32;100.00;97589.31;4996951;28;20584;-47
2023/01/26 06:44:09;;;;;;;34.42;15.48;;;-0.20;99.90;;;-1.29;100.00;97584.19;4997044;28;20041;-49
2023/01/26 06:46:35;;;;;;;34.15;15.40;;;-0.20;99.90;;;-1.26;100.00;97580.78;4995028;28;20169;-50
2023/01/26 06:49:02;;;;;;;31.30;15.35;;;-0.20;99.90;;;-1.30;100.00;97586.75;4988464;28;20084;-52
2023/01/26 06:51:37;;;;;;;33.25;15.23;;;-0.20;99.90;;;-1.32;100.00;97583.28;4995544;28;20237;-50
2023/01/26 06:54:02;;;;;;;30.52;13.80;;;-0.20;99.90;;;-1.34;100.00;97591.03;4996879;28;20038;-46
2023/01/26 06:56:28;;;;;;;29.02;13.73;;;-0.30;99.90;;;-1.38;100.00;97595.28;4998405;28;20567;-48
2023/01/26 06:58:54;;;;;;;32.13;14.95;;;-0.20;99.90;;;-1.35;100.00;97589.28;4995414;28;20040;-52
2023/01/26 07:01:23;;;;;;;28.67;13.65;;;-0.30;99.90;;;-1.33;100.00;97586.72;4996993;28;20037;-49
2023/01/26 07:03:51;;;;;;;31.02;14.18;;;-0.20;99.90;;;-1.35;100.00;97592.75;4973422;28;20515;-48
2023/01/26 07:06:17;;;;;;;32.67;15.10;;;-0.20;99.90;;;-1.38;100.00;97589.25;4996946;28;20331;-50
2023/01/26 07:08:43;;;;;;;36.92;15.82;;;-0.30;99.90;;;-1.39;100.00;97590.09;4998265;28;20457;-51
2023/01/26 07:11:11;;;;;;;33.63;15.30;;;-0.30;99.90;;;-1.38;100.00;97584.09;4997959;28;20044;-51
2023/01/26 07:13:37;;;;;;;31.67;14.43;;;-0.20;99.90;;;-1.42;100.00;97582.28;4994970;28;20062;-46
2023/01/26 07:16:07;;;;;;;29.92;14.55;;;-0.30;99.90;;;-1.44;100.00;97595.19;4992249;28;20053;-50
2023/01/26 07:18:33;;;;;;;28.30;14.32;;;-0.30;99.90;;;-1.43;100.00;97596.94;4997325;28;20044;-50
2023/01/26 07:21:06;;;;;;;32.50;15.15;;;-0.30;99.90;;;-1.39;100.00;97596.13;4998116;28;20038;-51
2023/01/26 07:23:32;;;;;;;28.75;14.68;;;-0.30;99.90;;;-1.39;100.00;97603.03;4992907;28;20040;-46
2023/01/26 07:25:58;;;;;;;28.80;14.25;;;-0.30;99.90;;;-1.34;100.00;97596.22;4997068;28;20500;-48
2023/01/26 07:28:25;;;;;;;30.33;14.43;;;-0.30;99.90;;;-1.32;100.00;97601.41;4993306;28;20091;-51
2023/01/26 07:30:52;;;;;;;26.40;13.70;;;-0.20;99.90;;;-1.28;100.00;97608.34;4994533;28;20033;-51
2023/01/26 07:33:18;;;;;;;35.15;15.45;;;-0.20;99.90;;;-1.27;100.00;97604.94;4989827;28;20041;-48
2023/01/26 07:35:43;;;;;;;32.60;15.38;;;-0.20;99.90;;;-1.31;100.00;97605.72;4994664;28;20037;-48
2023/01/26 07:38:10;;;;;;;33.95;15.70;;;-0.20;99.90;;;-1.36;100.00;97608.25;4996843;28;20037;-48
2023/01/26 07:40:35;;;;;;;32.28;14.68;;;-0.20;99.90;;;-1.33;100.00;97607.41;4996087;28;20034;-50
2023/01/26 07:43:01;;;;;;;31.25;14.63;;;-0.20;99.90;;;-1.29;100.00;97606.59;4994793;28;20432;-52
2023/01/26 07:45:27;;;;;;;29.33;13.90;;;-0.20;99.90;;;-1.28;100.00;97604.03;4992215;28;20037;-52
2023/01/26 07:47:56;;;;;;;29.23;15.13;;;-0.20;99.90;;;-1.28;100.00;97591.09;4994905;28;20594;-48
2023/01/26 07:50:24;;;;;;;28.50;13.82;;;-0.20;99.90;;;-1.19;100.00;97605.88;4996774;28;20049;-50
2023/01/26 07:52:51;;;;;;;32.42;13.70;;;-0.10;99.90;;;-1.29;100.00;97612.66;4996495;28;20040;-51
2023/01/26 07:55:19;;;;;;;33.00;14.57;;;-0.10;99.90;;;-1.33;100.00;97605.69;4978172;28;20034;-50
2023/01/26 07:57:48;;;;;;;28.95;14.32;;;-0.20;99.90;;;-1.33;100.00;97613.44;4996220;28;20206;-48
2023/01/26 08:00:15;;;;;;;29.17;12.93;;;-0.20;99.90;;;-1.31;100.00;97606.59;4992457;28;20643;-49
2023/01/26 08:02:41;;;;;;;32.85;13.63;;;-0.20;99.90;;;-1.36;100.00;97606.53;4998632;28;20576;-50
2023/01/26 08:05:07;;;;;;;25.23;12.57;;;-0.20;99.90;;;-1.39;100.00;97603.03;4992119;28;20032;-52
2023/01/26 08:07:33;;;;;;;28.55;12.73;;;-0.30;99.90;;;-1.33;100.00;97603.09;4997111;28;20307;-50
2023/01/26 08:09:58;;;;;;;23.65;12.05;;;-0.20;99.90;;;-1.27;100.00;97604.94;4998015;28;20088;-47
2023/01/26 08:12:24;;;;;;;23.05;12.88;;;-0.20;99.90;;;-1.17;100.00;97609.34;4996847;28;20034;-51
2023/01/26 08:14:50;;;;;;;22.67;10.75;;;-0.10;99.90;;;-1.16;100.00;97616.28;4994774;28;20076;-51
2023/01/26 08:17:16;;;;;;;27.15;12.23;;;-0.10;99.90;;;-1.09;100.00;97622.41;4995906;28;20034;-48
2023/01/26 08:19:43;;;;;;;25.02;11.88;;;-0.10;99.90;;;-1.11;100.00;97609.44;4997143;28;20057;-51
2023/01/26 08:22:09;;;;;;;25.95;11.82;;;0.00;99.90;;;-1.10;100.00;97605.97;4998091;28;20037;-52
2023/01/26 08:24:34;;;;;;;27.35;13.07;;;0.00;99.90;;;-1.13;100.00;97603.38;4995357;28;20064;-51
2023/01/26 08:27:00;;;;;;;27.70;13.57;;;0.00;99.90;;;-1.15;100.00;97612.81;4996777;28;20085;-51
2023/01/26 08:29:26;;;;;;;27.70;13.75;;;0.00;99.90;;;-1.15;100.00;97615.41;4994517;28;20129;-49
2023/01/26 08:31:52;;;;;;;30.27;14.07;;;-0.10;99.90;;;-1.15;100.00;97602.47;4994604;28;20092;-51
2023/01/26 08:34:20;;;;;;;27.35;12.73;;;-0.10;99.90;;;-1.17;100.00;97609.34;4996719;28;20604;-47
2023/01/26 08:36:46;;;;;;;25.20;12.23;;;0.00;99.90;;;-1.13;100.00;97597.31;4996228;28;20565;-52
2023/01/26 08:39:12;;;;;;;25.88;13.07;;;0.00;99.90;;;-1.17;100.00;97593.81;4998569;28;20309;-53
2023/01/26 08:41:38;;;;;;;31.27;13.77;;;-0.10;99.90;;;-1.21;100.00;97598.09;4992503;28;20390;-52
2023/01/26 08:44:04;;;;;;;27.15;13.52;;;-0.10;99.90;;;-1.23;100.00;97583.41;4995733;28;20119;-50
2023/01/26 08:46:30;;;;;;;30.42;13.77;;;-0.10;99.90;;;-1.08;100.00;97593.94;4995764;28;20302;-49
2023/01/26 08:48:55;;;;;;;27.33;12.90;;;0.00;99.90;;;-1.07;100.00;97593.09;4991277;28;20529;-48
2023/01/26 08:51:21;;;;;;;25.50;12.77;;;0.00;99.90;;;-1.06;100.00;97593.94;4990848;28;20240;-53
2023/01/26 08:53:47;;;;;;;28.35;14.48;;;0.00;99.90;;;-1.06;100.00;97581.91;4992795;28;20414;-51
2023/01/26 08:56:13;;;;;;;31.50;13.98;;;0.00;99.90;;;-1.00;100.00;97583.69;4993898;28;20034;-49
2023/01/26 08:58:39;;;;;;;24.52;12.30;;;0.00;99.90;;;-0.95;100.00;97589.78;4989908;28;20034;-52
2023/01/26 09:01:06;;;;;;;31.30;13.15;;;0.10;99.90;;;-0.99;100.00;97595.75;4992473;28;20390;-51
2023/01/26 09:03:32;;;;;;;26.92;13.23;;;0.10;99.90;;;-1.08;100.00;97590.47;4992624;28;20535;-52
2023/01/26 09:06:00;;;;;;;27.73;13.40;;;0.10;99.90;;;-1.06;100.00;97594.84;4997461;28;20030;-52
2023/01/26 09:08:26;;;;;;;27.77;13.07;;;0.00;99.90;;;-0.98;100.00;97589.75;4998738;28;20112;-52
2023/01/26 09:10:51;;;;;;;28.20;13.32;;;0.00;99.90;;;-1.05;100.00;97587.94;4996783;28;20048;-50
2023/01/26 09:13:17;;;;;;;24.20;12.68;;;0.00;99.90;;;-1.08;100.00;97577.53;4995873;28;20041;-51
2023/01/26 09:15:43;;;;;;;26.80;12.90;;;0.00;99.90;;;-1.07;100.00;97585.31;4989352;28;20029;-50
2023/01/26 09:18:10;;;;;;;27.27;13.27;;;0.10;99.90;;;-1.05;100.00;97581.03;4997924;28;20117;-53
2023/01/26 09:20:37;;;;;;;25.52;13.00;;;0.00;99.90;;;-1.05;100.00;97583.63;4995188;28;20033;-49
2023/01/26 09:23:03;;;;;;;24.55;12.52;;;0.10;99.90;;;-1.10;100.00;97589.59;4998918;28;21044;-52
2023/01/26 09:25:29;;;;;;;29.50;13.30;;;0.00;99.90;;;-1.09;100.00;97586.16;4994153;28;20041;-49
2023/01/26 09:27:55;;;;;;;27.48;12.75;;;0.00;99.90;;;-1.06;100.00;97593.94;4994226;28;20041;-50
2023/01/26 09:30:23;;;;;;;21.02;11.20;;;0.00;99.90;;;-1.02;100.00;97594.03;4996382;28;20045;-51
2023/01/26 09:32:50;;;;;;;25.48;12.68;;;0.10;99.90;;;-1.05;100.00;97590.53;4995585;28;20247;-51
2023/01/26 09:35:16;;;;;;;28.67;12.25;;;0.10;99.90;;;-1.04;100.00;97592.25;4992882;28;20030;-53
2023/01/26 09:37:43;;;;;;;25.52;11.80;;;0.00;99.90;;;-1.02;100.00;97601.78;4997659;28;20029;-52
2023/01/26 09:40:18;;;;;;;22.98;11.38;;;0.00;99.90;;;-1.01;100.00;97605.22;4997220;28;20530;-50
2023/01/26 09:43:30;;;;;;;25.42;11.10;;;0.10;99.90;;;-1.02;100.00;97609.56;4977509;28;20037;-50
2023/01/26 09:46:08;;;;;;;21.58;11.18;;;0.10;99.90;;;-1.03;100.00;97606.94;4996025;28;20387;-51
2023/01/26 09:49:04;;;;;;;25.55;11.43;;;0.10;99.90;;;-1.11;100.00;97608.56;4994687;28;20056;-52
2023/01/26 09:51:38;;;;;;;21.38;10.55;;;0.00;99.90;;;-1.16;100.00;97617.13;4997744;28;20499;-51
2023/01/26 09:54:35;;;;;;;23.65;10.95;;;0.00;99.90;;;-1.24;100.00;97613.59;4976542;28;20030;-50
2023/01/26 09:57:13;;;;;;;19.77;9.68;;;0.00;99.90;;;-1.24;100.00;97605.84;4999482;28;20034;-53
2023/01/26 09:59:46;;;;;;;18.23;9.30;;;0.00;99.90;;;-1.16;100.00;97608.50;4980117;28;20112;-48
2023/01/26 10:02:52;;;;;;;17.40;8.82;;;-0.10;99.90;;;-1.25;100.00;97595.47;4994288;28;20034;-50
2023/01/26 10:05:56;;;;;;;19.13;9.30;;;-0.10;99.90;;;-1.23;100.00;97598.94;4977253;28;20516;-52
2023/01/26 10:08:22;;;;;;;16.92;7.60;;;-0.10;99.90;;;-1.23;100.00;97596.34;4999991;28;20079;-52
2023/01/26 10:11:05;;;;;;;20.90;9.50;;;-0.10;99.90;;;-1.31;100.00;97597.94;4993658;28;20030;-48
2023/01/26 10:13:31;;;;;;;15.07;7.85;;;-0.10;99.90;;;-1.19;100.00;97605.88;4996183;28;20022;-48
2023/01/26 10:16:06;;;;;;;14.80;7.85;;;-0.10;99.90;;;-1.14;100.00;97600.78;4980648;28;20033;-51
2023/01/26 10:18:49;;;;;;;15.23;8.27;;;-0.10;99.90;;;-1.04;100.00;97603.50;4983014;28;20034;-50
2023/01/26 10:21:17;;;;;;;16.90;8.20;;;0.00;99.90;;;-1.16;100.00;97590.41;4975455;28;20044;-51
2023/01/26 10:23:47;;;;;;;15.85;8.85;;;0.00;99.90;;;-1.04;100.00;97595.72;4990339;28;20029;-50
2023/01/26 10:26:20;;;;;;;17.15;8.32;;;0.10;99.90;;;-1.00;100.00;97597.50;4994958;28;20485;-53
2023/01/26 10:28:48;;;;;;;16.92;8.35;;;0.10;99.90;;;-1.02;100.00;97593.16;4977077;28;20124;-50
2023/01/26 10:31:21;;;;;;;14.75;7.30;;;0.10;99.90;;;-1.10;100.00;97589.59;4996520;28;20084;-50
2023/01/26 10:33:58;;;;;;;15.02;7.45;;;0.10;99.90;;;-1.05;100.00;97591.38;4991525;28;20077;-51
2023/01/26 10:36:29;;;;;;;12.57;7.03;;;0.10;99.90;;;-1.08;100.00;97604.28;4976147;28;20051;-51
2023/01/26 10:39:09;;;;;;;15.65;7.35;;;0.10;99.90;;;-1.07;100.00;97602.59;4992769;28;20036;-50
2023/01/26 10:41:35;;;;;;;14.18;7.18;;;0.10;99.90;;;-0.98;100.00;97600.09;4981956;28;20046;-50
2023/01/26 10:44:26;;;;;;;15.30;7.20;;;0.10;99.90;;;-0.96;100.00;97599.25;4995407;28;20034;-50
2023/01/26 10:47:06;;;;;;;13.85;6.70;;;0.10;99.90;;;-0.78;100.00;97603.78;4977415;28;20033;-51
2023/01/26 10:49:32;;;;;;;15.52;7.13;;;0.20;99.90;;;-0.82;100.00;97595.97;4994283;28;20049;-51
2023/01/26 10:52:20;;;;;;;13.15;6.47;;;0.30;99.90;;;-0.91;100.00;97601.06;4974980;28;20934;-49
2023/01/26 10:55:04;;;;;;;11.35;6.28;;;0.20;99.90;;;-0.89;100.00;97591.56;4993983;28;20025;-50
2023/01/26 10:57:32;;;;;;;14.52;7.03;;;0.20;99.90;;;-0.83;100.00;97589.03;4994843;28;20032;-51
2023/01/26 11:00:21;;;;;;;14.60;7.35;;;0.20;99.90;;;-0.96;100.00;97588.91;4991303;28;20104;-53